Time;durP1;ratioP1;P1;durP2;ratioP2;P2;SDS_P1;SDS_P2;PMS_P1;PMS_P2;Temp;Humidity;BMP_temperature;BMP_pressure;BME280_temperature;BME280_humidity;BME280_pressure;Samples;Min_cycle;Max_cycle;Signal;HPM_P1;HPM_P2
2024/02/24 00:01:33;;;;;;;6.78;1.10;;;;;;;3.77;100.00;97616.53;4993822;28;20038;-96
2024/02/24 00:03:59;;;;;;;5.80;1.40;;;;;;;3.77;100.00;97621.78;4978512;28;20038;-96
2024/02/24 00:06:26;;;;;;;4.30;1.23;;;;;;;3.79;100.00;97618.00;4981359;28;20034;-95
2024/02/24 00:09:00;;;;;;;2.92;1.00;;;;;;;3.80;100.00;97622.25;4976619;28;20503;-96
2024/02/24 00:11:26;;;;;;;3.33;0.98;;;;;;;3.81;100.00;97623.03;4978630;28;20040;-95
2024/02/24 00:13:52;;;;;;;7.05;1.20;;;;;;;3.80;100.00;97624.88;4988265;28;20040;-95
2024/02/24 00:16:18;;;;;;;6.60;1.58;;;;;;;3.80;100.00;97630.09;4970217;28;20025;-95
2024/02/24 00:18:44;;;;;;;3.58;1.25;;;;;;;3.84;100.00;97628.75;4986173;28;20128;-96
2024/02/24 00:21:10;;;;;;;5.82;1.65;;;;;;;3.87;100.00;97624.19;4982261;28;20125;-95
2024/02/24 00:23:36;;;;;;;4.55;1.23;;;;;;;3.90;100.00;97629.06;4969385;28;20034;-95
2024/02/24 00:26:02;;;;;;;6.50;1.52;;;;;;;3.94;100.00;97633.78;4986078;28;20042;-96
2024/02/24 00:28:28;;;;;;;8.57;2.25;;;;;;;3.97;100.00;97619.53;4990856;28;20501;-94
2024/02/24 00:30:56;;;;;;;6.53;2.40;;;;;;;4.02;100.00;97630.31;4975331;28;21109;-94
2024/02/24 00:33:22;;;;;;;5.45;1.40;;;;;;;4.05;100.00;97631.75;4978610;28;20434;-95
2024/02/24 00:35:48;;;;;;;5.60;1.50;;;;;;;4.06;100.00;97630.78;4989562;28;20075;-95
2024/02/24 00:38:13;;;;;;;15.35;4.15;;;;;;;4.10;100.00;97634.66;4998686;28;20037;-93
2024/02/24 00:40:39;;;;;;;9.63;1.52;;;;;;;4.08;100.00;97631.41;4971417;28;20034;-93
2024/02/24 00:43:05;;;;;;;5.90;1.60;;;;;;;4.10;100.00;97634.66;4983415;28;20415;-96
2024/02/24 00:45:31;;;;;;;10.40;1.70;;;;;;;4.12;100.00;97635.31;4986620;28;20042;-96
2024/02/24 00:47:57;;;;;;;11.15;2.28;;;;;;;4.13;100.00;97636.13;4967203;28;20132;-96
2024/02/24 00:50:28;;;;;;;4.80;1.20;;;;;;;4.14;100.00;97638.56;4981912;28;20057;-96
2024/02/24 00:52:55;;;;;;;10.02;1.58;;;;;;;4.16;100.00;97633.16;4972935;28;20050;-96
2024/02/24 00:55:22;;;;;;;9.00;2.33;;;;;;;4.19;100.00;97632.81;4969958;28;20183;-96
2024/02/24 00:57:48;;;;;;;4.22;1.17;;;;;;;4.20;100.00;97634.44;4962545;28;20533;-95
2024/02/24 01:00:14;;;;;;;5.28;1.35;;;;;;;4.20;100.00;97637.84;4995911;28;20451;-95
2024/02/24 01:02:40;;;;;;;7.53;1.55;;;;;;;4.24;100.00;97642.78;4988282;28;20045;-96
2024/02/24 01:05:06;;;;;;;5.22;1.70;;;;;;;4.24;100.00;97629.69;4973457;28;20034;-96
2024/02/24 01:07:32;;;;;;;8.35;1.85;;;;;;;4.27;100.00;97631.97;4967198;28;20037;-96
2024/02/24 01:09:58;;;;;;;5.70;1.60;;;;;;;4.27;100.00;97643.22;4982870;28;20050;-96
2024/02/24 01:12:24;;;;;;;9.30;1.63;;;;;;;4.26;100.00;97648.63;4988174;28;20188;-95
2024/02/24 01:14:50;;;;;;;10.70;1.95;;;;;;;4.28;100.00;97639.63;4976631;28;20128;-95
2024/02/24 01:17:16;;;;;;;6.28;1.52;;;;;;;4.30;100.00;97644.69;4973716;28;20482;-96
2024/02/24 01:19:42;;;;;;;12.60;1.75;;;;;;;4.37;100.00;97650.03;4992056;28;20038;-96
2024/02/24 01:22:08;;;;;;;9.13;2.13;;;;;;;4.37;100.00;97657.88;4989908;28;20441;-96
2024/02/24 01:24:34;;;;;;;9.13;1.40;;;;;;;4.37;100.00;97653.47;4970334;28;20038;-95
2024/02/24 01:27:00;;;;;;;6.35;1.67;;;;;;;4.36;100.00;97651.00;4988227;28;20037;-95
2024/02/24 01:29:25;;;;;;;5.68;1.25;;;;;;;4.41;100.00;97657.34;5002746;28;20034;-96
2024/02/24 01:31:51;;;;;;;13.80;1.73;;;;;;;4.44;100.00;97672.69;4978376;28;20054;-96
2024/02/24 01:34:17;;;;;;;7.88;1.67;;;;;;;4.44;100.00;97666.66;4972481;28;20069;-96
2024/02/24 01:36:43;;;;;;;7.30;1.80;;;;;;;4.42;100.00;97669.44;4975035;28;20514;-96
2024/02/24 01:39:09;;;;;;;12.07;1.98;;;;;;;4.46;100.00;97664.66;4975490;28;20050;-94
2024/02/24 01:41:35;;;;;;;12.85;2.10;;;;;;;4.41;100.00;97672.25;4974954;28;20509;-95
2024/02/24 01:44:00;;;;;;;7.38;1.80;;;;;;;4.41;100.00;97669.63;4973112;28;20034;-96
2024/02/24 01:46:27;;;;;;;11.05;1.80;;;;;;;4.37;100.00;97668.31;4967955;28;20567;-96
2024/02/24 01:48:53;;;;;;;12.55;1.45;;;;;;;4.44;100.00;97683.16;4992021;28;20042;-96
2024/02/24 01:51:19;;;;;;;8.02;1.58;;;;;;;4.41;100.00;97680.88;4985805;28;20029;-96
2024/02/24 01:53:45;;;;;;;9.77;1.83;;;;;;;4.45;100.00;97678.75;4976612;28;20490;-96
2024/02/24 01:56:11;;;;;;;7.07;1.52;;;;;;;4.46;100.00;97682.97;4977643;28;20065;-96
2024/02/24 01:58:38;;;;;;;10.85;1.75;;;;;;;4.49;100.00;97685.25;4972508;28;20124;-96
2024/02/24 02:01:05;;;;;;;8.88;2.30;;;;;;;4.52;100.00;97690.16;4991398;28;20022;-96
2024/02/24 02:03:31;;;;;;;23.00;6.82;;;;;;;4.50;100.00;97699.97;4977152;28;20043;-96
2024/02/24 02:05:58;;;;;;;18.33;3.90;;;;;;;4.48;100.00;97696.72;4976338;28;20088;-96
2024/02/24 02:08:24;;;;;;;9.15;1.63;;;;;;;4.49;100.00;97711.41;5008995;28;20065;-96
2024/02/24 02:10:52;;;;;;;19.98;3.58;;;;;;;4.53;100.00;97717.13;4994979;28;20034;-96
2024/02/24 02:13:19;;;;;;;20.63;3.63;;;;;;;4.53;100.00;97719.72;4992993;28;20390;-95
2024/02/24 02:15:49;;;;;;;15.32;3.97;;;;;;;4.56;100.00;97719.38;4974642;28;20467;-96
2024/02/24 02:18:15;;;;;;;17.50;5.82;;;;;;;4.55;100.00;97725.59;4988552;28;20046;-96
2024/02/24 02:20:46;;;;;;;13.05;3.20;;;;;;;4.54;100.00;97716.94;4990437;28;20038;-96
2024/02/24 02:23:13;;;;;;;10.27;2.72;;;;;;;4.56;100.00;97720.19;4983643;28;20033;-96
2024/02/24 02:25:39;;;;;;;11.43;1.77;;;;;;;4.52;100.00;97712.88;4974129;28;20041;-96
2024/02/24 02:28:05;;;;;;;9.82;1.75;;;;;;;4.55;100.00;97715.16;4974411;28;20121;-96
2024/02/24 02:30:31;;;;;;;8.02;1.38;;;;;;;4.57;100.00;97726.25;5008146;28;20397;-96
2024/02/24 02:32:57;;;;;;;12.48;1.80;;;;;;;4.58;100.00;97733.94;4963676;28;20046;-96
2024/02/24 02:35:23;;;;;;;8.45;1.48;;;;;;;4.61;100.00;97737.16;5003256;28;20504;-96
2024/02/24 02:37:49;;;;;;;10.18;1.95;;;;;;;4.56;100.00;97733.28;4983769;28;20069;-96
2024/02/24 02:40:15;;;;;;;11.00;1.63;;;;;;;4.61;100.00;97734.56;4976592;28;20065;-96
2024/02/24 02:42:41;;;;;;;5.47;1.20;;;;;;;4.58;100.00;97731.31;4976270;28;20534;-96
2024/02/24 02:45:07;;;;;;;7.97;1.48;;;;;;;4.64;100.00;97734.22;4976349;28;20544;-96
2024/02/24 02:47:36;;;;;;;14.07;2.05;;;;;;;4.65;100.00;97738.47;4980803;28;20052;-96
2024/02/24 02:50:04;;;;;;;10.32;1.50;;;;;;;4.64;100.00;97728.97;4973849;28;20046;-96
2024/02/24 02:52:33;;;;;;;7.93;1.48;;;;;;;4.66;100.00;97738.31;5001100;28;20045;-96
2024/02/24 02:54:59;;;;;;;8.50;1.80;;;;;;;4.67;100.00;97736.47;4966019;28;20042;-96
2024/02/24 02:57:25;;;;;;;8.43;1.83;;;;;;;4.67;100.00;97744.31;4973653;28;20050;-96
2024/02/24 02:59:51;;;;;;;10.93;1.40;;;;;;;4.65;100.00;97749.72;4976889;28;20069;-96
2024/02/24 03:02:17;;;;;;;9.52;1.58;;;;;;;4.65;100.00;97747.13;4989236;28;20034;-96
2024/02/24 03:04:43;;;;;;;9.20;2.20;;;;;;;4.66;100.00;97761.03;4989025;28;20038;-96
2024/02/24 03:07:09;;;;;;;12.02;3.17;;;;;;;4.65;100.00;97752.34;4996658;28;20494;-96
2024/02/24 03:09:34;;;;;;;4.82;1.58;;;;;;;4.64;100.00;97757.75;4984549;28;20435;-96
2024/02/24 03:12:00;;;;;;;9.45;2.33;;;;;;;4.64;100.00;97761.19;4969555;28;20034;-96
2024/02/24 03:14:27;;;;;;;14.85;2.47;;;;;;;4.65;100.00;97765.44;4959267;28;20471;-96
2024/02/24 03:16:54;;;;;;;13.25;2.15;;;;;;;4.61;100.00;97772.00;4992578;28;20502;-96
2024/02/24 03:19:20;;;;;;;7.95;1.85;;;;;;;4.62;100.00;97771.00;4968560;28;20049;-96
2024/02/24 03:21:46;;;;;;;9.32;1.83;;;;;;;4.64;100.00;97778.69;4987528;28;20295;-96
2024/02/24 03:24:12;;;;;;;8.27;2.22;;;;;;;4.64;100.00;97783.91;4975690;28;20037;-96
2024/02/24 03:26:39;;;;;;;9.52;2.13;;;;;;;4.67;100.00;97788.81;4989146;28;20042;-96
2024/02/24 03:29:05;;;;;;;11.25;2.90;;;;;;;4.64;100.00;97797.00;4992315;28;20034;-96
2024/02/24 03:31:30;;;;;;;17.50;2.83;;;;;;;4.64;100.00;97797.00;4987043;28;20053;-95
2024/02/24 03:33:56;;;;;;;17.98;3.85;;;;;;;4.64;100.00;97794.38;4974808;28;20447;-96
2024/02/24 03:36:22;;;;;;;15.60;2.85;;;;;;;4.66;100.00;97805.50;4973719;28;20022;-96
2024/02/24 03:38:48;;;;;;;18.85;3.25;;;;;;;4.67;100.00;97807.13;4984796;28;20052;-96
2024/02/24 03:41:14;;;;;;;10.45;2.17;;;;;;;4.64;100.00;97812.69;4982405;28;20036;-96
2024/02/24 03:43:40;;;;;;;9.52;2.65;;;;;;;4.58;100.00;97816.81;4994315;28;20103;-95
2024/02/24 03:46:06;;;;;;;6.93;1.98;;;;;;;4.58;100.00;97822.06;4991721;28;20034;-96
2024/02/24 03:48:32;;;;;;;11.10;2.90;;;;;;;4.58;100.00;97824.69;4972627;28;20092;-96
2024/02/24 03:50:59;;;;;;;16.17;3.60;;;;;;;4.57;100.00;97834.31;4974482;28;20034;-96
2024/02/24 03:53:26;;;;;;;9.93;2.72;;;;;;;4.54;100.00;97829.44;4972000;28;20033;-96
2024/02/24 03:55:52;;;;;;;8.18;2.05;;;;;;;4.53;100.00;97833.03;4975393;28;20133;-96
2024/02/24 03:58:21;;;;;;;7.65;1.92;;;;;;;4.54;100.00;97824.19;4987729;28;20172;-96
2024/02/24 04:00:47;;;;;;;4.05;1.60;;;;;;;4.46;100.00;97840.75;4972844;28;20046;-95
2024/02/24 04:03:14;;;;;;;7.53;1.45;;;;;;;4.45;100.00;97848.75;4968818;28;20026;-96
2024/02/24 04:05:40;;;;;;;4.45;1.17;;;;;;;4.41;100.00;97850.88;4972653;28;20046;-96
2024/02/24 04:08:06;;;;;;;2.35;0.80;;;;;;;4.42;100.00;97865.63;4973903;28;21141;-95
2024/02/24 04:10:32;;;;;;;5.30;1.85;;;;;;;4.41;100.00;97863.16;4994505;28;20042;-95
2024/02/24 04:12:58;;;;;;;3.20;0.70;;;;;;;4.37;100.00;97867.09;4975600;28;20049;-95
2024/02/24 04:15:24;;;;;;;3.13;0.68;;;;;;;4.39;100.00;97871.19;4973382;28;20033;-95
2024/02/24 04:17:50;;;;;;;4.95;0.57;;;;;;;4.37;100.00;97880.16;4989513;28;20042;-96
2024/02/24 04:20:16;;;;;;;4.22;0.60;;;;;;;4.40;100.00;97883.25;4978160;28;20041;-96
2024/02/24 04:22:42;;;;;;;3.55;0.60;;;;;;;4.39;100.00;97884.25;4991345;28;20096;-96
2024/02/24 04:25:09;;;;;;;4.95;0.77;;;;;;;4.46;100.00;97892.22;4992334;28;20367;-96
2024/02/24 04:27:35;;;;;;;6.28;1.48;;;;;;;4.41;100.00;97894.56;5008732;28;20034;-96
2024/02/24 04:30:01;;;;;;;5.45;0.90;;;;;;;4.41;100.00;97897.97;5008081;28;20037;-96
2024/02/24 04:32:29;;;;;;;5.25;1.02;;;;;;;4.43;100.00;97903.84;4996812;28;20069;-96
2024/02/24 04:34:55;;;;;;;2.55;0.77;;;;;;;4.44;100.00;97912.53;5008006;28;20566;-96
2024/02/24 04:37:22;;;;;;;3.70;1.10;;;;;;;4.47;100.00;97912.19;4978178;28;20033;-96
2024/02/24 04:39:48;;;;;;;7.80;1.05;;;;;;;4.48;100.00;97924.28;4969449;28;20038;-96
2024/02/24 04:42:14;;;;;;;5.20;0.88;;;;;;;4.44;100.00;97926.41;4984829;28;20041;-96
2024/02/24 04:44:39;;;;;;;2.97;0.90;;;;;;;4.44;100.00;97934.25;4977031;28;20145;-96
2024/02/24 04:47:05;;;;;;;4.25;0.77;;;;;;;4.41;100.00;97934.59;4977337;28;20620;-95
2024/02/24 04:49:31;;;;;;;4.28;1.23;;;;;;;4.39;100.00;97940.97;4976831;28;20038;-96
2024/02/24 04:51:57;;;;;;;7.82;1.33;;;;;;;4.38;100.00;97944.59;4977284;28;20092;-96
2024/02/24 04:54:22;;;;;;;7.00;0.90;;;;;;;4.39;100.00;97948.81;4974647;28;20042;-95
2024/02/24 04:56:48;;;;;;;2.92;0.75;;;;;;;4.37;100.00;97951.59;4975768;28;20042;-96
2024/02/24 04:59:14;;;;;;;2.42;0.82;;;;;;;4.34;100.00;97963.22;4974451;28;20041;-96
2024/02/24 05:01:40;;;;;;;4.43;1.00;;;;;;;4.35;100.00;97964.03;4967899;28;20046;-96
2024/02/24 05:04:06;;;;;;;3.38;0.73;;;;;;;4.32;100.00;97967.78;4977311;28;20046;-96
2024/02/24 05:06:31;;;;;;;4.03;0.60;;;;;;;4.35;100.00;97971.88;4975953;28;20045;-96
2024/02/24 05:08:57;;;;;;;10.93;0.82;;;;;;;4.31;100.00;97965.34;4984888;28;20085;-96
2024/02/24 05:11:24;;;;;;;7.53;1.08;;;;;;;4.32;100.00;97970.41;4974019;28;20068;-96
2024/02/24 05:13:50;;;;;;;1.95;0.50;;;;;;;4.29;100.00;97986.44;4987658;28;20034;-96
2024/02/24 05:16:16;;;;;;;5.45;0.82;;;;;;;4.29;100.00;97975.97;4975779;28;20577;-96
2024/02/24 05:18:42;;;;;;;3.05;0.73;;;;;;;4.31;100.00;97987.09;4984639;28;20124;-96
2024/02/24 05:21:08;;;;;;;3.60;0.70;;;;;;;4.27;100.00;97988.38;4968855;28;20122;-96
2024/02/24 05:23:34;;;;;;;3.00;0.75;;;;;;;4.28;100.00;97994.44;5007596;28;20030;-96
2024/02/24 05:26:00;;;;;;;6.18;1.27;;;;;;;4.26;100.00;98002.44;4979622;28;20073;-96
2024/02/24 05:28:27;;;;;;;8.05;0.88;;;;;;;4.29;100.00;98012.59;4993826;28;20054;-96
2024/02/24 05:30:52;;;;;;;2.25;0.70;;;;;;;4.26;100.00;98017.31;4978612;28;20052;-96
2024/02/24 05:33:18;;;;;;;2.80;0.57;;;;;;;4.27;100.00;98026.81;4986794;28;20128;-96
2024/02/24 05:35:44;;;;;;;5.57;0.70;;;;;;;4.18;100.00;98015.53;4997846;28;20050;-96
2024/02/24 05:38:10;;;;;;;4.22;0.73;;;;;;;4.21;100.00;98028.25;4991855;28;20038;-96
2024/02/24 05:40:36;;;;;;;2.08;0.50;;;;;;;4.16;100.00;98022.69;4980576;28;20478;-96
2024/02/24 05:43:03;;;;;;;2.58;0.60;;;;;;;4.15;100.00;98034.16;4977484;28;20065;-96
2024/02/24 05:45:28;;;;;;;6.60;0.93;;;;;;;4.06;100.00;98023.69;4991154;28;20042;-96
2024/02/24 05:47:56;;;;;;;1.60;0.50;;;;;;;4.09;100.00;98036.44;4985513;28;20030;-96
2024/02/24 05:50:22;;;;;;;3.47;1.60;;;;;;;4.10;100.00;98029.41;4988180;28;20061;-96
2024/02/24 05:52:47;;;;;;;3.47;0.70;;;;;;;4.07;100.00;98027.13;4976903;28;20430;-96
2024/02/24 05:55:15;;;;;;;6.95;0.90;;;;;;;4.09;100.00;98031.19;4974130;28;20299;-96
2024/02/24 05:57:42;;;;;;;7.18;1.38;;;;;;;4.05;100.00;98037.75;4984208;28;20513;-96
2024/02/24 06:00:11;;;;;;;3.22;1.27;;;;;;;4.00;100.00;98037.41;4987992;28;20045;-96
2024/02/24 06:02:39;;;;;;;4.35;0.88;;;;;;;3.98;100.00;98052.44;4986300;28;20041;-95
2024/02/24 06:05:05;;;;;;;3.50;0.60;;;;;;;3.94;100.00;98051.13;4968885;28;20394;-96
2024/02/24 06:07:32;;;;;;;4.25;0.50;;;;;;;3.92;100.00;98053.06;4975873;28;20076;-96
2024/02/24 06:09:57;;;;;;;4.88;0.65;;;;;;;3.88;100.00;98054.38;4991275;28;20084;-96
2024/02/24 06:12:23;;;;;;;2.15;0.68;;;;;;;3.77;100.00;98056.31;4978291;28;20073;-96
2024/02/24 06:14:50;;;;;;;1.50;0.45;;;;;;;3.82;100.00;98066.28;4996377;28;20391;-96
2024/02/24 06:17:15;;;;;;;6.32;0.77;;;;;;;3.82;100.00;98071.53;4979245;28;20108;-96
2024/02/24 06:19:41;;;;;;;1.33;0.70;;;;;;;3.80;100.00;98079.53;4971514;28;20502;-96
2024/02/24 06:22:07;;;;;;;2.10;0.65;;;;;;;3.78;100.00;98078.84;4992724;28;20041;-96
2024/02/24 06:24:33;;;;;;;5.07;0.70;;;;;;;3.68;100.00;98073.75;4975902;28;20038;-96
2024/02/24 06:26:59;;;;;;;4.55;0.85;;;;;;;3.71;100.00;98085.69;4979546;28;20451;-96
2024/02/24 06:29:24;;;;;;;5.07;0.63;;;;;;;3.73;100.00;98096.78;4995626;28;20030;-96
2024/02/24 06:31:50;;;;;;;3.83;0.80;;;;;;;3.69;100.00;98090.25;4976280;28;20077;-96
2024/02/24 06:34:16;;;;;;;11.52;1.17;;;;;;;3.68;100.00;98086.81;4974219;28;20034;-96
2024/02/24 06:36:42;;;;;;;3.75;0.50;;;;;;;3.68;100.00;98086.81;4992419;28;20505;-96
2024/02/24 06:39:08;;;;;;;3.40;0.60;;;;;;;3.70;100.00;98097.94;4996560;28;20493;-96
2024/02/24 06:41:34;;;;;;;2.05;0.50;;;;;;;3.70;100.00;98107.56;4977811;28;20042;-96
2024/02/24 06:43:59;;;;;;;2.78;1.00;;;;;;;3.67;100.00;98102.66;5010040;28;20176;-96
2024/02/24 06:46:26;;;;;;;5.82;0.77;;;;;;;3.65;100.00;98115.88;4991773;28;20049;-96
2024/02/24 06:48:52;;;;;;;2.65;0.50;;;;;;;3.66;100.00;98116.69;4977516;28;20044;-96
2024/02/24 06:51:20;;;;;;;3.88;0.65;;;;;;;3.64;100.00;98126.47;4992919;28;20491;-96
2024/02/24 06:53:47;;;;;;;1.15;0.52;;;;;;;3.64;100.00;98131.72;4980760;28;20077;-96
2024/02/24 06:56:13;;;;;;;3.22;0.30;;;;;;;3.60;100.00;98142.47;5004285;28;20041;-96
2024/02/24 06:58:40;;;;;;;2.45;0.70;;;;;;;3.59;100.00;98151.28;4992555;28;20037;-96
2024/02/24 07:01:05;;;;;;;3.08;0.47;;;;;;;3.60;100.00;98163.38;4994434;28;20097;-96
2024/02/24 07:03:32;;;;;;;4.07;0.88;;;;;;;3.61;100.00;98158.97;4972300;28;20108;-96
2024/02/24 07:06:01;;;;;;;1.45;0.60;;;;;;;3.71;100.00;98166.69;4994831;28;20041;-96
2024/02/24 07:08:27;;;;;;;3.65;1.05;;;;;;;3.72;100.00;98173.56;4976745;28;20565;-96
2024/02/24 07:10:53;;;;;;;4.55;1.00;;;;;;;3.74;100.00;98178.63;4973279;28;20037;-96
2024/02/24 07:13:19;;;;;;;3.35;0.90;;;;;;;3.72;100.00;98184.84;4992557;28;20038;-96
2024/02/24 07:15:45;;;;;;;8.23;4.50;;;;;;;3.71;100.00;98185.78;4979927;28;20029;-96
2024/02/24 07:18:10;;;;;;;3.15;1.58;;;;;;;3.75;100.00;98188.09;4992972;28;20120;-96
2024/02/24 07:20:36;;;;;;;3.42;0.93;;;;;;;3.79;100.00;98195.47;4990328;28;20034;-96
2024/02/24 07:23:02;;;;;;;2.10;0.60;;;;;;;3.85;100.00;98202.66;4993310;28;20038;-96
2024/02/24 07:25:28;;;;;;;7.43;1.08;;;;;;;3.85;100.00;98204.47;4975811;28;20038;-96
2024/02/24 07:27:54;;;;;;;3.70;0.40;;;;;;;3.82;100.00;98204.78;4988918;28;20045;-96
2024/02/24 07:30:19;;;;;;;7.90;0.90;;;;;;;3.83;100.00;98207.25;4995545;28;20045;-96
2024/02/24 07:32:45;;;;;;;4.30;0.55;;;;;;;3.83;100.00;98211.66;4994896;28;20026;-96
2024/02/24 07:35:11;;;;;;;5.53;1.10;;;;;;;3.84;100.00;98214.09;5003572;28;20389;-96
2024/02/24 07:37:37;;;;;;;4.38;0.70;;;;;;;3.85;100.00;98215.72;5008842;28;20041;-96
2024/02/24 07:40:03;;;;;;;8.15;1.67;;;;;;;3.89;100.00;98218.03;4977822;28;20033;-96
2024/02/24 07:42:30;;;;;;;6.32;0.93;;;;;;;3.94;100.00;98221.84;4990509;28;20041;-96
2024/02/24 07:44:55;;;;;;;3.92;0.43;;;;;;;3.99;100.00;98218.75;4979838;28;20608;-96
2024/02/24 07:47:21;;;;;;;9.15;0.88;;;;;;;4.00;100.00;98223.00;5011244;28;20054;-96
2024/02/24 07:49:47;;;;;;;4.57;0.70;;;;;;;4.00;100.00;98219.59;4995216;28;20124;-96
2024/02/24 07:52:13;;;;;;;3.90;0.68;;;;;;;4.00;100.00;98225.59;4997676;28;20040;-95
2024/02/24 07:54:38;;;;;;;5.80;0.90;;;;;;;3.94;100.00;98224.44;4991774;28;20038;-94
2024/02/24 07:57:04;;;;;;;6.93;1.95;;;;;;;3.92;100.00;98223.78;4980908;28;20040;-96
2024/02/24 07:59:30;;;;;;;6.72;0.90;;;;;;;3.89;100.00;98221.47;4996217;28;20084;-96
2024/02/24 08:01:56;;;;;;;4.68;0.82;;;;;;;3.88;100.00;98216.41;4978228;28;20502;-96
2024/02/24 08:04:21;;;;;;;5.72;0.63;;;;;;;3.85;100.00;98223.56;4990097;28;20045;-96
2024/02/24 08:06:47;;;;;;;6.13;1.17;;;;;;;3.85;100.00;98228.81;5002655;28;20048;-96
2024/02/24 08:09:13;;;;;;;9.10;1.08;;;;;;;3.84;100.00;98227.19;4992673;28;20033;-96
2024/02/24 08:11:41;;;;;;;4.45;1.25;;;;;;;3.88;100.00;98235.53;4992743;28;20192;-96
2024/02/24 08:14:08;;;;;;;3.65;0.80;;;;;;;3.93;100.00;98237.69;4981718;28;20033;-96
2024/02/24 08:16:34;;;;;;;7.13;2.10;;;;;;;3.99;100.00;98229.22;4970162;28;20034;-96
2024/02/24 08:19:01;;;;;;;7.60;0.80;;;;;;;3.99;100.00;98229.22;4975858;28;20037;-96
2024/02/24 08:21:28;;;;;;;5.80;0.85;;;;;;;4.07;100.00;98244.09;4958322;28;20042;-96
2024/02/24 08:23:54;;;;;;;13.18;5.05;;;;;;;4.16;100.00;98248.38;4955348;28;20030;-95
2024/02/24 08:26:20;;;;;;;32.17;10.75;;;;;;;4.25;100.00;98245.81;4976066;28;20117;-96
2024/02/24 08:28:46;;;;;;;16.73;6.00;;;;;;;4.30;100.00;98249.56;4970374;28;20038;-96
2024/02/24 08:31:11;;;;;;;37.28;11.95;;;;;;;4.36;100.00;98249.94;4976438;28;20045;-96
2024/02/24 08:33:41;;;;;;;46.05;12.20;;;;;;;4.49;100.00;98250.28;4959787;28;20504;-96
2024/02/24 08:36:07;;;;;;;68.97;21.52;;;;;;;4.52;100.00;98249.16;4971500;28;20038;-96
2024/02/24 08:38:33;;;;;;;74.97;24.50;;;;;;;4.56;100.00;98250.47;4972511;28;20410;-96
2024/02/24 08:40:59;;;;;;;33.50;11.68;;;;;;;4.55;100.00;98248.84;4959284;28;20022;-96
2024/02/24 08:43:24;;;;;;;34.30;12.75;;;;;;;4.58;100.00;98259.00;4963605;28;20057;-96
2024/02/24 08:45:50;;;;;;;61.53;20.45;;;;;;;4.59;100.00;98258.81;4956880;28;20036;-96
2024/02/24 08:48:16;;;;;;;54.35;20.50;;;;;;;4.57;100.00;98259.97;4986676;28;20034;-96
2024/02/24 08:50:42;;;;;;;32.42;14.07;;;;;;;4.55;100.00;98267.16;4986056;28;20042;-95
2024/02/24 08:53:08;;;;;;;30.20;12.88;;;;;;;4.54;100.00;98273.38;4977447;28;20038;-96
2024/02/24 08:55:34;;;;;;;25.05;11.20;;;;;;;4.54;100.00;98276.78;4976906;28;20061;-96
2024/02/24 08:57:59;;;;;;;19.80;7.07;;;;;;;4.55;100.00;98277.63;4960108;28;20221;-96
2024/02/24 09:00:25;;;;;;;16.15;4.78;;;;;;;4.53;100.00;98275.16;4975518;28;20096;-96
2024/02/24 09:02:51;;;;;;;11.23;2.60;;;;;;;4.67;100.00;98281.56;4979764;28;20061;-96
2024/02/24 09:05:17;;;;;;;10.52;2.65;;;;;;;4.77;100.00;98291.91;4978882;28;20121;-96
2024/02/24 09:07:43;;;;;;;12.93;4.68;;;;;;;4.87;100.00;98289.16;4956501;28;20033;-96
2024/02/24 09:10:12;;;;;;;7.72;3.00;;;;;;;5.02;100.00;98298.97;4953329;28;20038;-96
2024/02/24 09:12:37;;;;;;;10.20;2.83;;;;;;;5.01;100.00;98305.19;4972466;28;20026;-96
2024/02/24 09:15:04;;;;;;;12.30;4.43;;;;;;;4.97;100.00;98307.31;4949963;28;20042;-95
2024/02/24 09:17:29;;;;;;;17.77;5.60;;;;;;;4.99;100.00;98301.91;4957307;28;20034;-96
2024/02/24 09:19:55;;;;;;;6.82;1.35;;;;;;;5.06;100.00;98309.00;4968607;28;20030;-96
2024/02/24 09:22:21;;;;;;;11.43;3.28;;;;;;;5.09;100.00;98313.91;4980049;28;20050;-96
2024/02/24 09:24:47;;;;;;;12.20;2.28;;;;;;;5.11;100.00;98315.53;4957254;28;20534;-96
2024/02/24 09:27:12;;;;;;;8.23;1.90;;;;;;;5.15;100.00;98312.44;4955647;28;20041;-96
2024/02/24 09:29:38;;;;;;;6.45;1.02;;;;;;;5.23;100.00;98314.22;4974715;28;20510;-96
2024/02/24 09:32:04;;;;;;;9.65;1.65;;;;;;;5.38;100.00;98316.22;4977177;28;20119;-96
2024/02/24 09:34:30;;;;;;;8.85;0.88;;;;;;;5.47;100.00;98320.47;4963454;28;20029;-96
2024/02/24 09:36:56;;;;;;;10.70;2.45;;;;;;;5.56;100.00;98324.72;4977227;28;20030;-96
2024/02/24 09:39:22;;;;;;;4.60;1.10;;;;;;;5.67;100.00;98328.78;4954674;28;20037;-96
2024/02/24 09:41:48;;;;;;;4.57;0.90;;;;;;;5.81;100.00;98335.16;4975341;28;20440;-96
2024/02/24 09:44:15;;;;;;;4.00;0.75;;;;;;;5.96;100.00;98324.84;4976617;28;20030;-96
2024/02/24 09:46:43;;;;;;;7.85;1.00;;;;;;;6.15;100.00;98330.72;4984234;28;20037;-96
2024/02/24 09:49:11;;;;;;;7.38;0.90;;;;;;;6.32;100.00;98335.94;4971131;28;20611;-96
2024/02/24 09:51:40;;;;;;;3.22;0.93;;;;;;;6.42;100.00;98340.97;4969917;28;20034;-95
2024/02/24 09:54:06;;;;;;;4.65;0.75;;;;;;;6.45;100.00;98340.63;4957415;28;20037;-94
2024/02/24 09:56:33;;;;;;;7.30;1.25;;;;;;;6.48;100.00;98337.69;4958711;28;20038;-95
2024/02/24 09:59:00;;;;;;;6.03;1.65;;;;;;;6.44;100.00;98342.44;5000322;28;20034;-96
2024/02/24 10:01:25;;;;;;;2.35;0.80;;;;;;;6.44;100.00;98341.63;4963596;28;20031;-95
2024/02/24 10:03:52;;;;;;;8.57;1.13;;;;;;;6.54;100.00;98350.13;4972566;28;20046;-96
2024/02/24 10:06:19;;;;;;;10.43;1.00;;;;;;;6.70;100.00;98349.22;4972417;28;20685;-96
2024/02/24 10:08:45;;;;;;;6.45;1.10;;;;;;;6.80;100.00;98343.75;4993575;28;20526;-96
2024/02/24 10:11:13;;;;;;;5.13;1.00;;;;;;;6.81;100.00;98341.97;4976327;28;20088;-94
2024/02/24 10:13:39;;;;;;;5.38;0.88;;;;;;;6.82;100.00;98354.09;4974545;28;20050;-92
2024/02/24 10:16:08;;;;;;;4.35;0.50;;;;;;;6.99;100.00;98367.16;4960955;28;20034;-92
2024/02/24 10:18:34;;;;;;;7.53;0.80;;;;;;;6.97;100.00;98348.09;4995396;28;20042;-95
2024/02/24 10:20:59;;;;;;;4.35;0.85;;;;;;;6.98;100.00;98354.97;4958308;28;20115;-95
2024/02/24 10:23:26;;;;;;;13.88;1.40;;;;;;;6.96;100.00;98363.03;4979045;28;20050;-96
2024/02/24 10:25:57;;;;;;;6.60;1.15;;;;;;;6.97;100.00;98364.69;4962762;28;20049;-96
2024/02/24 10:28:25;;;;;;;11.00;1.70;;;;;;;7.10;100.00;98374.63;4993777;28;20026;-92
2024/02/24 10:30:50;;;;;;;8.02;0.93;;;;;;;7.21;100.00;98383.94;4965572;28;20038;-93
2024/02/24 10:33:17;;;;;;;5.30;0.90;;;;;;;7.25;100.00;98377.31;4965726;28;20045;-96
2024/02/24 10:35:44;;;;;;;6.72;1.30;;;;;;;7.30;100.00;98382.88;4958801;28;20026;-96
2024/02/24 10:38:12;;;;;;;4.63;0.65;;;;;;;7.40;100.00;98372.16;4975034;28;20045;-96
2024/02/24 10:40:40;;;;;;;4.10;0.70;;;;;;;7.42;100.00;98382.50;4958134;28;20105;-96
2024/02/24 10:43:06;;;;;;;9.52;0.80;;;;;;;7.36;100.00;98370.84;4959708;28;20033;-96
2024/02/24 10:45:32;;;;;;;7.10;1.05;;;;;;;7.32;100.00;98373.03;4968462;28;20100;-95
2024/02/24 10:47:58;;;;;;;7.47;1.38;;;;;;;7.37;100.00;98379.56;4973461;28;20041;-96
2024/02/24 10:50:24;;;;;;;6.97;1.40;;;;;;;7.36;100.00;98377.94;4960836;28;20034;-96
2024/02/24 10:52:51;;;;;;;6.15;1.08;;;;;;;7.44;100.00;98383.94;4972330;28;20092;-96
2024/02/24 10:55:22;;;;;;;10.73;1.02;;;;;;;7.53;100.00;98384.69;4964829;28;20052;-96
2024/02/24 10:57:52;;;;;;;8.93;1.30;;;;;;;7.51;100.00;98381.44;4969821;28;20066;-96
2024/02/24 11:00:32;;;;;;;5.60;1.40;;;;;;;7.50;100.00;98386.88;4948888;28;20375;-96
2024/02/24 11:02:59;;;;;;;8.30;1.02;;;;;;;7.37;100.00;98390.06;4977329;28;20033;-91
2024/02/24 11:05:25;;;;;;;5.97;0.77;;;;;;;7.29;100.00;98402.25;4977198;28;20033;-91
2024/02/24 11:07:51;;;;;;;5.60;0.80;;;;;;;7.31;100.00;98402.91;4972464;28;20065;-96
2024/02/24 11:10:21;;;;;;;5.93;0.80;;;;;;;7.44;100.00;98412.03;4976465;28;20045;-96
2024/02/24 11:12:51;;;;;;;3.30;1.02;;;;;;;7.50;100.00;98410.53;4995126;28;20037;-96
2024/02/24 11:15:23;;;;;;;5.57;0.88;;;;;;;7.56;100.00;98409.81;4978752;28;20030;-96
2024/02/24 11:17:51;;;;;;;5.32;0.80;;;;;;;7.47;100.00;98413.50;4963273;28;20121;-96
2024/02/24 11:20:39;;;;;;;2.42;0.85;;;;;;;7.48;100.00;98413.34;4961093;28;20216;-96
2024/02/24 11:23:24;;;;;;;3.75;0.60;;;;;;;7.46;100.00;98417.94;4977484;28;20056;-96
2024/02/24 11:26:09;;;;;;;4.95;0.90;;;;;;;7.49;100.00;98417.59;4972195;28;20045;-96
2024/02/24 11:28:36;;;;;;;5.18;0.73;;;;;;;7.48;100.00;98417.75;4965896;28;20487;-96